Terminal Aerodrome Forecast
Issued by NWS

Home | Current Version | Previous Version | Text Only | Print | Product List | Glossary On
Versions: 1 2 3 4 5 6 7 8 9 10 11 12 13 14 15 16 17 18 19 20
565
FTUS43 KPAH 261140
TAFCGI
TAF
KCGI 261140Z 2612/2712 00000KT 6SM BR BKN003
      TEMPO 2612/2613 1SM BR OVC002
     FM261400 21004KT P6SM VCSH SCT025 BKN150
     FM261800 23004KT P6SM SCT045
     FM262300 VRB03KT P6SM SCT050 BKN200
     FM270700 00000KT 3SM BR FEW040 BKN250=

USA.gov is the U.S. government's official web portal to all federal, state and local government web resources and services.